Time;durP1;ratioP1;P1;durP2;ratioP2;P2;SDS_P1;SDS_P2;PMS_P1;PMS_P2;Temp;Humidity;BMP_temperature;BMP_pressure;BME280_temperature;BME280_humidity;BME280_pressure;Samples;Min_cycle;Max_cycle;Signal;HPM_P1;HPM_P2
2022/04/20 00:00:28;;;;;;;2.22;2.03;;;;;;;8.48;46.46;100515.06;8582993;33;21087;-73
2022/04/20 00:05:33;;;;;;;2.80;2.00;;;;;;;8.21;47.11;100518.66;8583233;33;20487;-72
2022/04/20 00:10:38;;;;;;;4.37;2.10;;;;;;;8.16;47.84;100510.09;8582580;33;20396;-72
2022/04/20 00:15:41;;;;;;;2.17;2.08;;;;;;;8.12;48.05;100506.78;8579618;33;20147;-72
2022/04/20 00:20:44;;;;;;;1.90;1.80;;;;;;;8.06;48.38;100507.19;8580368;33;20198;-72
2022/04/20 00:25:48;;;;;;;3.22;2.30;;;;;;;7.95;48.86;100501.72;8579331;33;20325;-72
2022/04/20 00:30:51;;;;;;;3.13;1.92;;;;;;;7.85;49.39;100501.50;8580900;33;20518;-72
2022/04/20 00:35:55;;;;;;;2.75;2.45;;;;;;;7.64;50.02;100502.94;8583572;33;20144;-72
2022/04/20 00:41:00;;;;;;;4.80;2.17;;;;;;;7.52;49.74;100501.94;8560029;33;20151;-72
2022/04/20 00:46:05;;;;;;;2.63;1.90;;;;;;;7.45;49.17;100505.97;8581301;33;20148;-72
2022/04/20 00:51:08;;;;;;;3.40;2.03;;;;;;;7.35;49.31;100513.75;8554199;33;20406;-72
2022/04/20 00:56:13;;;;;;;2.17;1.70;;;;;;;7.52;49.23;100501.09;8579249;33;20120;-72
2022/04/20 01:01:17;;;;;;;3.72;2.60;;;;;;;7.42;50.09;100500.84;8581878;33;20489;-72
2022/04/20 01:06:21;;;;;;;2.85;2.22;;;;;;;7.19;51.57;100497.00;8559532;33;20148;-72
2022/04/20 01:11:52;;;;;;;5.70;2.80;;;;;;;7.08;50.91;100511.06;8531702;33;20424;-72
2022/04/20 01:17:34;;;;;;;3.70;2.50;;;;;;;7.19;50.66;100499.69;8568740;33;20151;-74
2022/04/20 01:22:56;;;;;;;4.13;2.55;;;;;;;7.20;50.23;100504.06;8584780;33;21137;-73
2022/04/20 01:28:18;;;;;;;4.72;3.25;;;;;;;7.13;50.62;100510.75;8580322;33;20444;-74
2022/04/20 01:33:53;;;;;;;3.28;2.42;;;;;;;7.13;50.39;100506.28;8518900;33;20529;-73
2022/04/20 01:38:58;;;;;;;4.10;2.78;;;;;;;7.21;50.53;100501.31;8579020;33;20140;-74
2022/04/20 01:44:01;;;;;;;3.22;2.90;;;;;;;7.32;50.43;100502.38;8559907;33;21023;-73
2022/04/20 01:49:15;;;;;;;4.03;2.85;;;;;;;7.13;50.68;100505.41;8557039;33;20170;-73
2022/04/20 01:54:48;;;;;;;5.30;2.70;;;;;;;6.89;51.49;100507.84;8506780;33;20189;-73
2022/04/20 01:59:55;;;;;;;3.25;2.70;;;;;;;6.79;51.59;100497.72;8581936;33;20416;-74
2022/04/20 02:05:19;;;;;;;2.95;2.63;;;;;;;6.73;51.92;100510.59;8583362;33;20163;-73
2022/04/20 02:10:26;;;;;;;3.33;2.42;;;;;;;6.67;52.05;100509.19;8557276;33;20370;-73
2022/04/20 02:15:29;;;;;;;3.33;2.72;;;;;;;6.71;51.97;100518.69;8576807;33;20573;-73
2022/04/20 02:20:52;;;;;;;3.85;2.53;;;;;;;6.52;52.88;100523.47;8572110;33;20424;-73
2022/04/20 02:25:57;;;;;;;5.22;2.72;;;;;;;6.42;53.03;100507.19;8567601;33;20429;-74
2022/04/20 02:31:00;;;;;;;4.68;3.10;;;;;;;6.38;53.04;100518.97;8570359;33;20159;-74
2022/04/20 02:36:04;;;;;;;3.50;2.83;;;;;;;6.33;52.88;100521.91;8543290;33;20201;-74
2022/04/20 02:41:08;;;;;;;3.88;2.90;;;;;;;6.28;53.09;100513.38;8567132;33;20139;-73
2022/04/20 02:46:12;;;;;;;4.28;2.92;;;;;;;6.27;53.20;100518.78;8569012;33;20429;-73
2022/04/20 02:51:15;;;;;;;4.95;2.97;;;;;;;6.17;53.27;100522.00;8568847;33;20293;-73
2022/04/20 02:56:20;;;;;;;5.72;2.90;;;;;;;6.13;53.88;100535.63;8576908;27;20152;-74
2022/04/20 03:01:28;;;;;;;4.88;3.25;;;;;;;6.14;53.77;100524.88;8541108;33;20839;-74
2022/04/20 03:06:31;;;;;;;4.65;3.05;;;;;;;6.20;53.40;100517.44;8570624;33;20439;-74
2022/04/20 03:11:42;;;;;;;4.65;3.13;;;;;;;6.15;53.26;100520.38;8513139;33;20412;-74
2022/04/20 03:16:48;;;;;;;3.63;2.88;;;;;;;6.06;53.31;100515.59;8535231;33;21171;-75
2022/04/20 03:21:51;;;;;;;3.75;2.63;;;;;;;5.67;54.32;100517.88;8536226;33;20424;-75
2022/04/20 03:26:58;;;;;;;4.60;2.97;;;;;;;5.51;54.98;100519.69;8530211;33;20965;-75
2022/04/20 03:32:11;;;;;;;3.88;2.92;;;;;;;5.38;55.48;100516.91;8501425;33;20517;-75
2022/04/20 03:37:15;;;;;;;3.57;2.73;;;;;;;5.38;56.04;100521.38;8500788;33;21077;-75
2022/04/20 03:42:20;;;;;;;4.20;3.05;;;;;;;5.35;56.15;100516.19;8496184;33;20520;-75
2022/04/20 03:47:23;;;;;;;4.25;3.33;;;;;;;5.53;55.79;100523.13;8516733;33;20141;-75
2022/04/20 03:52:26;;;;;;;3.80;3.25;;;;;;;5.67;54.86;100523.19;8518059;33;20157;-74
2022/04/20 03:57:30;;;;;;;9.07;3.07;;;;;;;5.65;54.45;100527.78;8502062;33;20458;-75
2022/04/20 04:02:35;;;;;;;5.20;3.25;;;;;;;5.62;54.53;100524.41;8523083;33;20141;-75
2022/04/20 04:07:47;;;;;;;5.18;2.72;;;;;;;5.46;54.97;100533.31;8521146;33;20415;-75
2022/04/20 04:12:56;;;;;;;3.55;2.80;;;;;;;5.45;54.95;100536.03;8521263;33;20662;-75
2022/04/20 04:18:02;;;;;;;3.45;2.60;;;;;;;5.46;54.76;100533.31;8519850;33;21011;-75
2022/04/20 04:23:12;;;;;;;5.75;3.45;;;;;;;5.36;55.25;100525.94;8520677;33;20406;-75
2022/04/20 04:28:18;;;;;;;3.25;2.80;;;;;;;5.33;55.20;100532.28;8520424;33;20535;-75
2022/04/20 04:33:22;;;;;;;6.30;4.15;;;;;;;5.36;55.21;100533.91;8517703;33;20144;-75
2022/04/20 04:38:25;;;;;;;4.97;3.40;;;;;;;5.40;54.94;100532.78;8511350;33;20438;-75
2022/04/20 04:43:30;;;;;;;4.75;3.38;;;;;;;5.37;55.30;100539.16;8512810;33;20983;-75
2022/04/20 04:48:39;;;;;;;5.53;3.47;;;;;;;5.31;54.81;100552.81;8519969;33;20155;-75
2022/04/20 04:53:49;;;;;;;3.22;2.92;;;;;;;5.31;55.05;100552.81;8526304;33;20477;-75
2022/04/20 04:59:05;;;;;;;4.53;2.85;;;;;;;5.38;55.25;100564.00;8533719;33;20423;-75
2022/04/20 05:04:11;;;;;;;5.43;3.50;;;;;;;5.43;55.58;100565.47;8522338;33;20192;-75
2022/04/20 05:09:15;;;;;;;10.48;3.67;;;;;;;5.47;55.63;100556.34;8496677;33;20239;-75
2022/04/20 05:14:22;;;;;;;6.32;3.08;;;;;;;5.51;55.49;100554.34;8518918;33;20534;-75
2022/04/20 05:19:30;;;;;;;4.20;3.28;;;;;;;5.57;55.78;100558.47;8518699;33;20431;-75
2022/04/20 05:24:40;;;;;;;7.43;3.70;;;;;;;5.59;56.04;100567.22;8518053;33;20152;-75
2022/04/20 05:29:49;;;;;;;8.02;4.22;;;;;;;5.72;56.16;100562.91;8518706;33;20421;-74
2022/04/20 05:34:53;;;;;;;5.60;3.55;;;;;;;5.82;55.63;100566.78;8495302;33;20311;-75
2022/04/20 05:45:24;;;;;;;5.20;3.60;;;;;;;6.02;55.33;100575.41;8518775;33;20485;-75
2022/04/20 05:50:43;;;;;;;4.10;3.47;;;;;;;6.22;55.48;100576.88;8501904;33;20441;-75
2022/04/20 05:55:46;;;;;;;3.90;3.03;;;;;;;6.43;55.01;100574.75;8503253;33;20416;-74
2022/04/20 06:00:51;;;;;;;4.97;3.60;;;;;;;6.67;54.18;100581.25;8525434;33;20649;-74
2022/04/20 06:06:14;;;;;;;5.22;3.72;;;;;;;6.87;53.84;100568.47;8524830;33;20404;-75
2022/04/20 06:11:30;;;;;;;4.95;3.78;;;;;;;7.10;53.18;100578.59;8524842;33;20480;-74
2022/04/20 06:16:36;;;;;;;5.00;3.45;;;;;;;7.25;52.76;100580.28;8521946;33;20887;-74
2022/04/20 06:21:44;;;;;;;4.60;3.30;;;;;;;7.53;51.50;100580.31;8522995;33;20906;-75
2022/04/20 06:27:08;;;;;;;3.75;3.40;;;;;;;7.91;51.70;100581.31;8522240;33;20419;-74
2022/04/20 06:32:24;;;;;;;11.73;3.83;;;;;;;8.33;50.66;100582.03;8515755;33;20914;-74
2022/04/20 06:37:56;;;;;;;8.88;3.00;;;;;;;8.66;49.62;100591.41;8439520;33;20432;-74
2022/04/20 06:43:35;;;;;;;4.97;2.97;;;;;;;8.92;49.69;100583.38;8494404;33;20472;-74
2022/04/20 06:48:55;;;;;;;5.65;3.45;;;;;;;9.18;49.11;100592.22;8515003;33;20132;-73
2022/04/20 06:59:51;;;;;;;5.00;3.00;;;;;;;9.76;47.77;100579.91;8516763;33;20298;-74
2022/04/20 07:05:07;;;;;;;4.07;3.30;;;;;;;10.01;47.06;100576.31;8534700;33;20456;-74
2022/04/20 07:10:29;;;;;;;5.32;3.60;;;;;;;10.32;46.46;100577.50;8514114;33;20223;-75
2022/04/20 07:15:37;;;;;;;4.85;3.67;;;;;;;10.64;45.85;100584.00;8533146;33;20160;-72
2022/04/20 07:20:42;;;;;;;4.47;3.60;;;;;;;10.94;44.92;100572.66;8511881;33;20484;-72
2022/04/20 07:25:51;;;;;;;4.30;3.55;;;;;;;10.65;45.49;100580.38;8533895;33;20962;-72
2022/04/20 07:31:06;;;;;;;6.63;3.60;;;;;;;11.03;44.44;100566.59;8516088;33;21285;-75
2022/04/20 07:36:29;;;;;;;4.20;3.22;;;;;;;11.39;44.23;100556.53;8519740;33;20149;-72
2022/04/20 07:41:32;;;;;;;5.22;4.03;;;;;;;11.90;43.68;100556.75;8518413;33;20562;-73
2022/04/20 07:46:55;;;;;;;4.70;3.75;;;;;;;12.15;42.19;100552.00;8526730;33;20983;-72
2022/04/20 07:52:13;;;;;;;4.85;4.00;;;;;;;12.42;43.46;100556.84;8547337;33;20144;-73
2022/04/20 07:57:33;;;;;;;9.05;3.83;;;;;;;12.78;42.77;100565.44;8540658;33;20145;-72
2022/04/20 08:03:13;;;;;;;4.78;3.60;;;;;;;13.10;41.81;100559.91;8498125;33;20421;-72
2022/04/20 08:08:19;;;;;;;7.25;3.63;;;;;;;13.22;40.71;100566.06;8517481;33;20641;-72
2022/04/20 08:18:50;;;;;;;4.55;3.58;;;;;;;13.63;40.87;100566.88;8545730;33;20632;-73
2022/04/20 08:24:17;;;;;;;7.05;3.90;;;;;;;14.09;40.34;100568.03;8522662;33;21058;-72
2022/04/20 08:29:20;;;;;;;4.10;3.55;;;;;;;14.24;40.09;100568.47;8519153;33;20309;-72
2022/04/20 08:34:23;;;;;;;6.18;3.88;;;;;;;14.12;40.48;100562.34;8514393;33;20435;-72
2022/04/20 08:39:27;;;;;;;8.40;4.05;;;;;;;14.31;39.38;100559.63;8511267;33;20152;-72
2022/04/20 08:44:31;;;;;;;7.43;3.92;;;;;;;14.66;39.15;100568.13;8511979;33;20420;-72
2022/04/20 08:49:36;;;;;;;5.35;3.65;;;;;;;14.73;38.05;100562.00;8513265;33;20509;-73
2022/04/20 08:54:41;;;;;;;5.07;3.70;;;;;;;15.36;37.54;100546.91;8539792;33;20227;-73
2022/04/20 08:59:47;;;;;;;4.88;3.60;;;;;;;15.70;37.71;100536.31;8486315;27;20196;-75
2022/04/20 09:04:50;;;;;;;5.90;4.18;;;;;;;16.29;37.34;100539.38;8464749;34;20523;-75
2022/04/20 09:09:54;;;;;;;4.72;3.42;;;;;;;16.45;36.95;100555.75;8429498;34;20201;-74
2022/04/20 09:15:00;;;;;;;5.65;3.60;;;;;;;16.74;36.36;100554.59;8407541;34;20444;-74
2022/04/20 09:20:06;;;;;;;4.35;3.42;;;;;;;16.45;36.31;100553.06;8432281;34;20639;-74
2022/04/20 09:25:11;;;;;;;6.78;3.80;;;;;;;16.46;36.06;100541.22;8411139;34;20173;-74
2022/04/20 09:30:16;;;;;;;5.55;3.65;;;;;;;16.15;36.74;100549.78;8414800;34;20440;-74
2022/04/20 09:35:21;;;;;;;4.38;3.00;;;;;;;16.68;35.40;100545.25;8411276;34;20426;-75
2022/04/20 09:40:34;;;;;;;3.45;3.13;;;;;;;16.80;34.23;100541.25;8410651;34;20203;-75
2022/04/20 09:45:37;;;;;;;4.15;3.42;;;;;;;17.00;34.05;100541.00;8414655;34;20158;-76
2022/04/20 09:50:40;;;;;;;4.70;3.17;;;;;;;17.08;33.86;100534.75;8416475;34;20511;-76
2022/04/20 09:55:45;;;;;;;6.18;3.60;;;;;;;17.28;33.85;100543.50;8415434;34;20425;-76
2022/04/20 10:00:50;;;;;;;3.30;2.95;;;;;;;17.21;33.37;100536.03;8415071;34;20678;-75
2022/04/20 10:05:54;;;;;;;4.38;3.20;;;;;;;17.35;32.12;100534.56;8416027;34;20437;-77
2022/04/20 10:10:58;;;;;;;4.97;3.17;;;;;;;17.35;31.79;100536.44;8435968;34;20260;-75
2022/04/20 10:16:10;;;;;;;5.53;3.00;;;;;;;17.79;32.11;100528.88;8412997;34;20423;-76
2022/04/20 10:21:14;;;;;;;3.63;3.03;;;;;;;18.24;31.55;100518.53;8415310;34;20142;-75
2022/04/20 10:26:20;;;;;;;6.57;3.03;;;;;;;18.34;31.18;100514.63;8410527;34;20150;-76
2022/04/20 10:31:32;;;;;;;3.25;2.95;;;;;;;18.56;30.53;100506.78;8407729;34;20445;-76
2022/04/20 10:36:39;;;;;;;5.28;3.38;;;;;;;18.30;30.41;100502.41;8431622;34;20145;-76
2022/04/20 10:42:27;;;;;;;3.33;2.95;;;;;;;18.22;31.64;100504.28;8436730;34;20213;-74
2022/04/20 10:47:33;;;;;;;3.20;2.85;;;;;;;18.67;31.00;100495.50;8410811;34;20452;-75
2022/04/20 10:52:38;;;;;;;3.25;2.95;;;;;;;18.90;29.81;100492.09;8406656;34;20553;-75
2022/04/20 10:57:48;;;;;;;3.42;2.45;;;;;;;18.69;30.38;100479.88;8430482;34;20423;-75
2022/04/20 11:02:53;;;;;;;3.92;2.97;;;;;;;18.82;30.02;100476.63;8409887;34;20507;-75
2022/04/20 11:08:07;;;;;;;3.67;2.83;;;;;;;18.99;29.98;100480.97;8414026;34;20419;-75
2022/04/20 11:19:08;;;;;;;3.30;2.47;;;;;;;19.89;29.18;100469.53;8413827;34;20561;-75
2022/04/20 11:24:28;;;;;;;3.92;2.47;;;;;;;21.05;27.47;100456.38;8410329;34;20337;-75
2022/04/20 11:29:33;;;;;;;3.00;2.70;;;;;;;21.78;26.83;100457.19;8416979;34;21062;-75
2022/04/20 11:34:38;;;;;;;3.97;2.30;;;;;;;21.91;26.36;100456.44;8406231;34;20662;-75
2022/04/20 11:39:41;;;;;;;3.05;2.30;;;;;;;21.94;27.19;100450.63;8410375;34;20418;-75
2022/04/20 11:44:47;;;;;;;3.63;2.28;;;;;;;22.11;26.01;100445.69;8413509;34;20467;-75
2022/04/20 11:49:58;;;;;;;2.70;2.42;;;;;;;21.93;27.27;100437.97;8431530;34;20426;-75
2022/04/20 11:55:21;;;;;;;3.50;2.90;;;;;;;21.83;26.88;100421.91;8437496;34;20209;-75
2022/04/20 12:00:25;;;;;;;5.47;3.13;;;;;;;22.15;26.72;100432.44;8418278;34;20237;-75
2022/04/20 12:05:28;;;;;;;4.80;2.90;;;;;;;22.76;25.83;100421.69;8417938;34;20517;-75
2022/04/20 12:10:33;;;;;;;3.80;2.97;;;;;;;22.93;25.61;100412.06;8438487;34;20437;-75
2022/04/20 12:15:38;;;;;;;3.95;3.40;;;;;;;22.95;26.36;100406.38;8416821;34;20143;-74
2022/04/20 12:20:49;;;;;;;7.65;4.28;;;;;;;23.56;25.56;100406.34;8439246;34;20177;-74
2022/04/20 12:25:53;;;;;;;5.15;3.60;;;;;;;23.60;26.40;100399.38;8412473;34;20659;-76
2022/04/20 12:31:01;;;;;;;4.57;4.00;;;;;;;23.65;25.96;100396.84;8440014;34;20616;-74
2022/04/20 12:36:08;;;;;;;5.57;3.70;;;;;;;23.36;25.25;100392.59;8426926;34;20415;-75
2022/04/20 12:41:42;;;;;;;4.18;3.70;;;;;;;22.80;26.95;100389.28;8416262;34;20232;-76
2022/04/20 12:46:47;;;;;;;4.75;3.85;;;;;;;21.38;28.35;100399.38;8438737;34;20186;-75
2022/04/20 12:51:51;;;;;;;8.05;3.72;;;;;;;22.34;27.68;100386.06;8437686;34;21124;-76
2022/04/20 13:02:27;;;;;;;6.78;4.03;;;;;;;22.19;27.10;100396.31;8347582;34;20158;-76
2022/04/20 13:07:31;;;;;;;5.13;4.05;;;;;;;22.50;26.46;100384.94;8423166;34;21053;-75
2022/04/20 13:12:48;;;;;;;3.95;3.40;;;;;;;21.88;27.94;100381.13;8430324;34;20175;-76
2022/04/20 13:17:53;;;;;;;5.32;3.92;;;;;;;21.40;27.87;100367.25;8450201;34;20221;-76
2022/04/20 13:22:57;;;;;;;5.22;3.92;;;;;;;21.69;28.28;100354.44;8432833;34;20500;-76
2022/04/20 13:28:00;;;;;;;6.22;3.85;;;;;;;22.27;28.14;100357.84;8431554;34;20150;-76
2022/04/20 13:33:07;;;;;;;4.05;3.50;;;;;;;22.44;27.54;100352.91;8435100;34;20135;-76
2022/04/20 13:38:11;;;;;;;2.85;2.60;;;;;;;23.07;26.16;100343.66;8437451;34;21051;-76
2022/04/20 13:43:14;;;;;;;5.40;2.70;;;;;;;22.91;26.26;100342.13;8445504;34;20143;-76
2022/04/20 13:48:19;;;;;;;3.53;3.00;;;;;;;22.57;25.98;100345.78;8444550;34;20456;-76
2022/04/20 13:53:22;;;;;;;2.92;2.45;;;;;;;22.53;26.00;100340.72;8431351;34;20262;-76
2022/04/20 13:58:25;;;;;;;3.72;2.42;;;;;;;21.26;27.07;100346.31;8448421;34;20766;-76
2022/04/20 14:03:29;;;;;;;2.78;2.30;;;;;;;22.19;26.48;100358.00;8415124;34;20603;-76
2022/04/20 14:08:32;;;;;;;4.22;2.30;;;;;;;21.69;27.38;100346.25;8419300;34;20902;-76
2022/04/20 14:13:39;;;;;;;2.78;2.50;;;;;;;21.87;26.75;100351.28;8418089;34;20417;-76
2022/04/20 14:18:43;;;;;;;4.13;2.53;;;;;;;21.47;27.40;100344.59;8410876;34;20204;-76
2022/04/20 14:23:47;;;;;;;4.53;2.85;;;;;;;21.79;26.92;100341.31;8415942;34;20478;-76
2022/04/20 14:34:13;;;;;;;4.35;2.35;;;;;;;21.68;27.09;100339.09;8410427;34;20145;-76
2022/04/20 14:39:16;;;;;;;3.85;2.45;;;;;;;21.96;27.18;100330.06;8410560;34;20149;-75
2022/04/20 14:44:19;;;;;;;4.15;2.42;;;;;;;22.18;26.80;100345.34;8410591;34;20150;-75
2022/04/20 14:49:24;;;;;;;4.88;2.80;;;;;;;21.54;27.45;100335.41;8377582;34;20459;-75
2022/04/20 14:54:32;;;;;;;5.03;2.88;;;;;;;21.26;28.39;100340.84;8351673;34;20155;-75
2022/04/20 14:59:36;;;;;;;3.45;2.67;;;;;;;21.37;28.51;100318.47;8357303;34;20917;-77
2022/04/20 15:04:41;;;;;;;5.00;3.50;;;;;;;21.19;28.29;100320.81;8358546;34;20151;-76
2022/04/20 15:09:45;;;;;;;5.18;3.28;;;;;;;21.39;28.62;100321.00;8356910;34;20521;-77
2022/04/20 15:14:48;;;;;;;3.72;3.33;;;;;;;21.29;28.54;100312.31;8354797;34;21057;-77
2022/04/20 15:19:53;;;;;;;4.20;3.17;;;;;;;21.42;28.26;100317.88;8353595;34;20969;-77
2022/04/20 15:24:57;;;;;;;4.28;2.97;;;;;;;21.19;29.13;100308.00;8354042;34;20509;-76
2022/04/20 15:30:00;;;;;;;4.13;3.30;;;;;;;20.88;29.39;100302.00;8354134;34;20175;-77
2022/04/20 15:35:09;;;;;;;3.85;3.00;;;;;;;20.85;29.46;100302.38;8356848;34;20850;-76
2022/04/20 15:40:12;;;;;;;3.58;3.17;;;;;;;20.48;29.29;100296.91;8350811;34;20214;-76
2022/04/20 15:45:16;;;;;;;3.10;2.70;;;;;;;20.03;29.33;100289.81;8348812;34;20446;-76
2022/04/20 15:50:20;;;;;;;3.15;2.72;;;;;;;19.72;29.47;100282.69;8355268;34;20655;-76
2022/04/20 16:00:45;;;;;;;3.30;2.63;;;;;;;19.94;29.64;100299.09;8359411;34;20147;-73
2022/04/20 16:05:49;;;;;;;6.45;3.58;;;;;;;19.98;29.38;100292.25;8351957;34;20857;-73
2022/04/20 16:10:53;;;;;;;7.05;3.40;;;;;;;19.33;29.71;100291.84;8353703;34;20424;-73
2022/04/20 16:15:56;;;;;;;5.05;3.53;;;;;;;17.98;31.58;100287.75;8352512;34;20242;-74
2022/04/20 16:21:01;;;;;;;3.40;2.58;;;;;;;17.38;32.70;100281.72;8301943;34;20247;-73
2022/04/20 16:26:04;;;;;;;3.28;2.80;;;;;;;18.00;31.70;100270.25;8302952;34;20229;-73
2022/04/20 16:31:07;;;;;;;3.83;2.78;;;;;;;18.17;31.22;100278.31;8301662;34;20144;-73
2022/04/20 16:36:11;;;;;;;4.80;2.80;;;;;;;18.71;31.03;100265.63;8302738;34;20848;-72
2022/04/20 16:41:15;;;;;;;3.90;2.40;;;;;;;18.95;30.31;100261.03;8303547;34;20480;-72
2022/04/20 16:46:19;;;;;;;2.78;2.10;;;;;;;19.35;29.74;100259.84;8305172;34;20437;-71
2022/04/20 16:51:23;;;;;;;5.18;2.53;;;;;;;19.40;28.70;100245.69;8305117;34;20140;-72
2022/04/20 16:56:26;;;;;;;3.55;2.00;;;;;;;19.09;29.12;100248.50;8308052;34;20444;-73
2022/04/20 17:01:29;;;;;;;2.22;1.95;;;;;;;19.31;28.47;100250.38;8308235;34;20423;-72
2022/04/20 17:06:34;;;;;;;2.42;1.70;;;;;;;18.78;28.81;100246.72;8327481;34;20538;-72
2022/04/20 17:11:37;;;;;;;2.13;1.88;;;;;;;18.50;29.38;100247.22;8371240;34;20430;-73
2022/04/20 17:16:40;;;;;;;3.15;2.00;;;;;;;17.59;30.55;100264.88;8371178;34;20569;-75
2022/04/20 17:27:06;;;;;;;3.15;1.80;;;;;;;16.96;31.37;100265.59;8368901;34;20262;-72
2022/04/20 17:32:09;;;;;;;2.20;1.65;;;;;;;16.44;31.71;100280.25;8337943;34;20253;-74
2022/04/20 17:37:15;;;;;;;3.17;1.70;;;;;;;15.94;31.69;100275.63;8362263;34;20286;-74
2022/04/20 17:42:19;;;;;;;2.75;1.85;;;;;;;16.08;31.75;100269.59;8338940;34;20147;-74
2022/04/20 17:47:22;;;;;;;2.58;1.67;;;;;;;16.08;32.68;100277.72;8364349;34;20710;-74
2022/04/20 17:52:26;;;;;;;3.40;2.22;;;;;;;15.55;32.78;100280.63;8361647;34;20163;-74
2022/04/20 17:57:29;;;;;;;3.25;1.70;;;;;;;15.20;33.51;100283.25;8360630;34;20564;-74
2022/04/20 18:02:32;;;;;;;3.55;1.67;;;;;;;14.80;34.04;100284.56;8365746;34;20567;-73
2022/04/20 18:07:37;;;;;;;2.00;1.55;;;;;;;14.58;34.32;100290.44;8371295;34;20520;-73
2022/04/20 18:13:00;;;;;;;2.50;1.80;;;;;;;14.31;34.86;100286.72;8356817;34;20158;-73
2022/04/20 18:18:05;;;;;;;6.32;2.20;;;;;;;14.18;35.14;100297.06;8355206;34;20174;-73
2022/04/20 18:23:10;;;;;;;2.20;2.00;;;;;;;14.06;35.08;100301.78;8357761;34;20466;-74
2022/04/20 18:28:13;;;;;;;2.28;1.80;;;;;;;13.94;35.38;100306.53;8352297;34;20151;-74
2022/04/20 18:33:17;;;;;;;3.85;1.63;;;;;;;13.81;35.85;100308.72;8355352;34;20427;-73
2022/04/20 18:38:22;;;;;;;3.85;2.17;;;;;;;13.63;36.36;100305.06;8354290;34;20496;-74
2022/04/20 18:43:26;;;;;;;2.83;1.98;;;;;;;13.48;36.36;100312.78;8355223;34;20432;-74
2022/04/20 18:48:29;;;;;;;3.47;1.60;;;;;;;13.36;37.11;100322.84;8354809;34;20427;-72
2022/04/20 18:58:54;;;;;;;5.57;2.33;;;;;;;13.15;37.42;100332.94;8363303;34;20954;-74
2022/04/20 19:03:57;;;;;;;5.22;2.38;;;;;;;13.10;37.53;100327.13;8356130;34;20564;-72
2022/04/20 19:09:01;;;;;;;2.17;1.95;;;;;;;13.03;37.83;100335.78;8357612;34;20642;-73
2022/04/20 19:14:06;;;;;;;7.35;2.85;;;;;;;12.99;37.80;100338.91;8352828;34;20973;-72
2022/04/20 19:19:09;;;;;;;3.30;1.80;;;;;;;12.93;37.90;100344.84;8350915;34;21077;-73
2022/04/20 19:24:13;;;;;;;3.60;2.30;;;;;;;12.90;38.08;100332.50;8355120;34;20166;-73
2022/04/20 19:29:16;;;;;;;4.80;2.95;;;;;;;12.90;38.38;100342.44;8354120;34;20279;-74
2022/04/20 19:34:20;;;;;;;7.25;2.90;;;;;;;12.86;38.65;100343.72;8357312;34;20446;-74
2022/04/20 19:39:25;;;;;;;6.63;4.22;;;;;;;12.73;38.30;100347.53;8359310;34;20480;-72
2022/04/20 19:44:28;;;;;;;4.28;2.88;;;;;;;12.65;38.87;100344.69;8359309;34;20523;-72
2022/04/20 19:49:31;;;;;;;3.45;2.40;;;;;;;12.53;39.01;100353.84;8359941;34;20155;-74
2022/04/20 19:54:36;;;;;;;3.40;2.67;;;;;;;12.43;39.10;100342.22;8358069;34;20579;-72
2022/04/20 19:59:59;;;;;;;4.55;2.55;;;;;;;12.38;39.12;100343.47;8352117;34;20517;-74
2022/04/20 20:05:02;;;;;;;5.82;2.58;;;;;;;12.34;39.05;100350.13;8358653;34;20448;-75
2022/04/20 20:10:08;;;;;;;4.70;2.88;;;;;;;12.22;39.83;100343.09;8351848;34;20440;-74
2022/04/20 20:15:12;;;;;;;3.83;2.92;;;;;;;12.11;40.24;100332.44;8348895;34;20430;-73
2022/04/20 20:20:15;;;;;;;5.80;2.78;;;;;;;12.04;40.11;100326.75;8354937;34;20155;-74
2022/04/20 20:30:41;;;;;;;6.50;3.28;;;;;;;11.87;40.51;100333.59;8349467;34;20166;-73
2022/04/20 20:35:44;;;;;;;3.80;2.60;;;;;;;11.80;40.34;100324.34;8351421;34;20151;-74
2022/04/20 20:40:48;;;;;;;3.63;3.17;;;;;;;11.75;40.61;100320.38;8354077;34;20147;-73
2022/04/20 20:45:57;;;;;;;5.13;3.05;;;;;;;11.65;41.25;100318.44;8352234;34;20434;-73
2022/04/20 20:51:00;;;;;;;3.03;2.35;;;;;;;11.56;40.94;100321.09;8358309;34;20587;-73
2022/04/20 20:56:05;;;;;;;4.18;2.15;;;;;;;11.42;41.10;100314.22;8355775;34;20552;-74
2022/04/20 21:01:08;;;;;;;4.30;2.50;;;;;;;11.31;41.59;100315.13;8523412;28;20423;-74
2022/04/20 21:06:12;;;;;;;3.75;2.22;;;;;;;11.16;41.62;100309.25;8527598;33;20668;-74
2022/04/20 21:11:16;;;;;;;3.15;2.47;;;;;;;11.19;41.59;100303.59;8465750;33;20158;-74
2022/04/20 21:16:19;;;;;;;4.78;2.30;;;;;;;11.15;42.22;100306.66;8469603;33;20544;-74
2022/04/20 21:21:23;;;;;;;4.75;2.50;;;;;;;11.06;41.60;100302.91;8471388;33;20243;-74
2022/04/20 21:26:28;;;;;;;2.35;2.00;;;;;;;10.97;42.46;100303.66;8470464;34;20449;-74
2022/04/20 21:31:31;;;;;;;2.67;2.13;;;;;;;10.95;42.50;100311.00;8465659;34;20157;-74
2022/04/20 21:36:35;;;;;;;3.65;2.30;;;;;;;10.78;42.88;100309.75;8469385;34;20203;-74
2022/04/20 21:41:40;;;;;;;3.05;1.88;;;;;;;10.78;43.38;100318.66;8470647;34;20154;-74
2022/04/20 21:46:44;;;;;;;3.60;2.25;;;;;;;10.56;44.11;100318.72;8469882;33;20458;-74
2022/04/20 21:51:48;;;;;;;4.53;2.45;;;;;;;10.35;44.85;100314.09;8466984;34;20149;-74
2022/04/20 21:56:53;;;;;;;4.13;2.17;;;;;;;10.30;45.02;100323.50;8475479;33;20161;-73
2022/04/20 22:12:42;;;;;;;5.20;3.65;;;;;;;10.18;46.33;100322.69;8469696;33;20615;-73
2022/04/20 22:17:46;;;;;;;4.88;3.40;;;;;;;10.07;46.42;100328.06;8443786;33;20316;-74
2022/04/20 22:22:49;;;;;;;5.13;3.13;;;;;;;10.09;46.59;100334.13;8463578;33;20451;-74
2022/04/20 22:27:54;;;;;;;5.00;3.45;;;;;;;10.05;46.78;100320.13;8439306;33;20563;-75
2022/04/20 22:33:01;;;;;;;4.78;3.45;;;;;;;10.04;46.82;100318.41;8467130;33;20433;-76
2022/04/20 22:38:05;;;;;;;5.05;3.80;;;;;;;10.01;47.54;100323.16;8468308;33;21010;-74
2022/04/20 22:43:09;;;;;;;4.72;3.70;;;;;;;9.94;47.91;100317.44;8469629;34;20215;-74
2022/04/20 22:48:12;;;;;;;5.60;4.03;;;;;;;9.93;48.22;100310.38;8463358;33;20447;-73
2022/04/20 22:53:15;;;;;;;7.38;4.32;;;;;;;9.86;48.48;100310.00;8465652;34;20430;-73
2022/04/20 22:58:20;;;;;;;6.40;4.25;;;;;;;9.76;48.90;100314.34;8462448;33;20544;-73
2022/04/20 23:03:23;;;;;;;5.55;3.83;;;;;;;9.68;49.20;100304.22;8469552;34;20433;-73
2022/04/20 23:08:26;;;;;;;6.67;4.30;;;;;;;9.66;49.40;100308.00;8472843;33;20559;-73
2022/04/20 23:13:31;;;;;;;7.65;3.90;;;;;;;9.64;49.56;100300.06;8470686;34;20424;-73
2022/04/20 23:18:34;;;;;;;7.95;4.20;;;;;;;9.55;50.07;100303.47;8470017;33;20200;-73
2022/04/20 23:23:37;;;;;;;5.13;4.03;;;;;;;9.36;50.32;100306.72;8467568;34;20150;-73
2022/04/20 23:28:42;;;;;;;6.55;3.97;;;;;;;9.26;50.29;100301.22;8467294;33;20496;-73
2022/04/20 23:33:46;;;;;;;5.93;4.03;;;;;;;9.29;50.63;100300.13;8468637;34;20752;-73
2022/04/20 23:38:49;;;;;;;6.93;3.75;;;;;;;9.33;50.74;100304.28;8491238;33;20149;-73
2022/04/20 23:43:54;;;;;;;6.18;3.90;;;;;;;9.27;50.80;100300.25;8493903;33;20232;-74
2022/04/20 23:48:57;;;;;;;4.93;4.10;;;;;;;9.29;50.78;100303.66;8470980;33;20607;-74
2022/04/20 23:54:00;;;;;;;4.55;3.45;;;;;;;9.20;51.01;100292.81;8470914;33;20215;-73
2022/04/20 23:59:04;;;;;;;4.05;3.20;;;;;;;9.20;51.03;100296.31;8466220;33;20543;-73
